sensor_id;sensor_type;location;lat;lon;timestamp;temperature;humidity
39189;DHT22;24915;50.858;4.376;2022-09-09T00:02:23;15.80;99.90
39189;DHT22;24915;50.858;4.376;2022-09-09T00:04:59;15.80;99.90
39189;DHT22;24915;50.858;4.376;2022-09-09T00:07:43;15.80;99.90
39189;DHT22;24915;50.858;4.376;2022-09-09T00:12:51;15.70;99.90
39189;DHT22;24915;50.858;4.376;2022-09-09T00:15:20;15.70;99.90
39189;DHT22;24915;50.858;4.376;2022-09-09T00:21:07;15.70;99.90
39189;DHT22;24915;50.858;4.376;2022-09-09T00:23:42;15.70;99.90
39189;DHT22;24915;50.858;4.376;2022-09-09T00:26:22;15.60;99.90
39189;DHT22;24915;50.858;4.376;2022-09-09T00:31:34;15.60;99.90
39189;DHT22;24915;50.858;4.376;2022-09-09T00:34:13;15.70;99.90
39189;DHT22;24915;50.858;4.376;2022-09-09T00:36:41;15.60;99.90
39189;DHT22;24915;50.858;4.376;2022-09-09T00:39:16;15.70;99.90
39189;DHT22;24915;50.858;4.376;2022-09-09T00:41:48;15.70;99.90
39189;DHT22;24915;50.858;4.376;2022-09-09T00:44:30;15.70;99.90
39189;DHT22;24915;50.858;4.376;2022-09-09T00:47:12;15.80;99.90
39189;DHT22;24915;50.858;4.376;2022-09-09T00:52:26;15.80;99.90
39189;DHT22;24915;50.858;4.376;2022-09-09T00:55:13;15.80;99.90
39189;DHT22;24915;50.858;4.376;2022-09-09T00:57:41;15.80;99.90
39189;DHT22;24915;50.858;4.376;2022-09-09T01:08:48;15.90;99.90
39189;DHT22;24915;50.858;4.376;2022-09-09T01:11:47;15.90;99.90
39189;DHT22;24915;50.858;4.376;2022-09-09T01:17:25;15.90;99.90
39189;DHT22;24915;50.858;4.376;2022-09-09T01:20:05;15.90;99.90
39189;DHT22;24915;50.858;4.376;2022-09-09T01:22:34;15.90;99.90
39189;DHT22;24915;50.858;4.376;2022-09-09T01:25:29;15.90;99.90
39189;DHT22;24915;50.858;4.376;2022-09-09T01:28:01;15.90;99.90
39189;DHT22;24915;50.858;4.376;2022-09-09T01:30:28;15.90;99.90
39189;DHT22;24915;50.858;4.376;2022-09-09T01:32:57;15.90;99.90
39189;DHT22;24915;50.858;4.376;2022-09-09T01:38:07;15.90;99.90
39189;DHT22;24915;50.858;4.376;2022-09-09T01:40:33;15.90;99.90
39189;DHT22;24915;50.858;4.376;2022-09-09T01:42:59;15.90;99.90
39189;DHT22;24915;50.858;4.376;2022-09-09T01:45:25;15.90;99.90
39189;DHT22;24915;50.858;4.376;2022-09-09T01:47:52;15.90;99.90
39189;DHT22;24915;50.858;4.376;2022-09-09T01:50:19;15.90;99.90
39189;DHT22;24915;50.858;4.376;2022-09-09T01:52:48;15.90;99.90
39189;DHT22;24915;50.858;4.376;2022-09-09T01:55:15;15.90;99.90
39189;DHT22;24915;50.858;4.376;2022-09-09T02:00:42;15.90;99.90
39189;DHT22;24915;50.858;4.376;2022-09-09T02:03:26;15.90;99.90
39189;DHT22;24915;50.858;4.376;2022-09-09T02:08:45;15.90;99.90
39189;DHT22;24915;50.858;4.376;2022-09-09T02:11:21;15.90;99.90
39189;DHT22;24915;50.858;4.376;2022-09-09T02:13:51;15.90;99.90
39189;DHT22;24915;50.858;4.376;2022-09-09T02:19:12;15.90;99.90
39189;DHT22;24915;50.858;4.376;2022-09-09T02:21:41;16.00;99.90
39189;DHT22;24915;50.858;4.376;2022-09-09T02:24:09;15.90;99.90
39189;DHT22;24915;50.858;4.376;2022-09-09T02:26:40;15.90;99.90
39189;DHT22;24915;50.858;4.376;2022-09-09T02:29:12;16.00;99.90
39189;DHT22;24915;50.858;4.376;2022-09-09T02:31:39;16.00;99.90
39189;DHT22;24915;50.858;4.376;2022-09-09T02:34:09;16.00;99.90
39189;DHT22;24915;50.858;4.376;2022-09-09T02:36:37;16.00;99.90
39189;DHT22;24915;50.858;4.376;2022-09-09T02:39:06;16.00;99.90
39189;DHT22;24915;50.858;4.376;2022-09-09T02:41:34;15.90;99.90
39189;DHT22;24915;50.858;4.376;2022-09-09T02:44:01;15.90;99.90
39189;DHT22;24915;50.858;4.376;2022-09-09T02:52:08;15.90;99.90
39189;DHT22;24915;50.858;4.376;2022-09-09T02:54:34;15.90;99.90
39189;DHT22;24915;50.858;4.376;2022-09-09T02:57:08;15.90;99.90
39189;DHT22;24915;50.858;4.376;2022-09-09T02:59:36;15.90;99.90
39189;DHT22;24915;50.858;4.376;2022-09-09T03:02:02;15.90;99.90
39189;DHT22;24915;50.858;4.376;2022-09-09T03:04:28;15.90;99.90
39189;DHT22;24915;50.858;4.376;2022-09-09T03:06:55;15.90;99.90
39189;DHT22;24915;50.858;4.376;2022-09-09T03:09:21;15.90;99.90
39189;DHT22;24915;50.858;4.376;2022-09-09T03:11:47;15.90;99.90
39189;DHT22;24915;50.858;4.376;2022-09-09T03:14:12;15.90;99.90
39189;DHT22;24915;50.858;4.376;2022-09-09T03:16:38;15.90;99.90
39189;DHT22;24915;50.858;4.376;2022-09-09T03:19:04;15.90;99.90
39189;DHT22;24915;50.858;4.376;2022-09-09T03:21:29;15.80;99.90
39189;DHT22;24915;50.858;4.376;2022-09-09T03:23:55;15.90;99.90
39189;DHT22;24915;50.858;4.376;2022-09-09T03:26:21;15.90;99.90
39189;DHT22;24915;50.858;4.376;2022-09-09T03:28:46;15.90;99.90
39189;DHT22;24915;50.858;4.376;2022-09-09T03:31:12;15.80;99.90
39189;DHT22;24915;50.858;4.376;2022-09-09T03:33:38;15.80;99.90
39189;DHT22;24915;50.858;4.376;2022-09-09T03:36:04;15.90;99.90
39189;DHT22;24915;50.858;4.376;2022-09-09T03:38:31;15.80;99.90
39189;DHT22;24915;50.858;4.376;2022-09-09T03:40:57;15.80;99.90
39189;DHT22;24915;50.858;4.376;2022-09-09T03:43:24;15.80;99.90
39189;DHT22;24915;50.858;4.376;2022-09-09T03:45:51;15.80;99.90
39189;DHT22;24915;50.858;4.376;2022-09-09T03:48:17;15.80;99.90
39189;DHT22;24915;50.858;4.376;2022-09-09T03:50:47;15.70;99.90
39189;DHT22;24915;50.858;4.376;2022-09-09T03:53:14;15.70;99.90
39189;DHT22;24915;50.858;4.376;2022-09-09T03:55:44;15.70;99.90
39189;DHT22;24915;50.858;4.376;2022-09-09T03:58:12;15.70;99.90
39189;DHT22;24915;50.858;4.376;2022-09-09T04:00:38;15.70;99.90
39189;DHT22;24915;50.858;4.376;2022-09-09T04:03:08;15.70;99.90
39189;DHT22;24915;50.858;4.376;2022-09-09T04:05:33;15.70;99.90
39189;DHT22;24915;50.858;4.376;2022-09-09T04:07:59;15.70;99.90
39189;DHT22;24915;50.858;4.376;2022-09-09T04:10:25;15.70;99.90
39189;DHT22;24915;50.858;4.376;2022-09-09T04:12:50;15.70;99.90
39189;DHT22;24915;50.858;4.376;2022-09-09T04:15:16;15.70;99.90
39189;DHT22;24915;50.858;4.376;2022-09-09T04:17:43;15.70;99.90
39189;DHT22;24915;50.858;4.376;2022-09-09T04:20:09;15.70;99.90
39189;DHT22;24915;50.858;4.376;2022-09-09T04:22:37;15.70;99.90
39189;DHT22;24915;50.858;4.376;2022-09-09T04:25:05;15.70;99.90
39189;DHT22;24915;50.858;4.376;2022-09-09T04:27:31;15.70;99.90
39189;DHT22;24915;50.858;4.376;2022-09-09T04:29:57;15.70;99.90
39189;DHT22;24915;50.858;4.376;2022-09-09T04:32:23;15.70;99.90
39189;DHT22;24915;50.858;4.376;2022-09-09T04:34:51;15.70;99.90
39189;DHT22;24915;50.858;4.376;2022-09-09T04:37:17;15.70;99.90
39189;DHT22;24915;50.858;4.376;2022-09-09T04:39:43;15.60;99.90
39189;DHT22;24915;50.858;4.376;2022-09-09T04:42:08;15.70;99.90
39189;DHT22;24915;50.858;4.376;2022-09-09T04:44:34;15.70;99.90
39189;DHT22;24915;50.858;4.376;2022-09-09T04:47:00;15.70;99.90
39189;DHT22;24915;50.858;4.376;2022-09-09T04:49:25;15.70;99.90
39189;DHT22;24915;50.858;4.376;2022-09-09T04:51:51;15.60;99.90
39189;DHT22;24915;50.858;4.376;2022-09-09T04:54:17;15.70;99.90
39189;DHT22;24915;50.858;4.376;2022-09-09T04:56:43;15.60;99.90
39189;DHT22;24915;50.858;4.376;2022-09-09T04:59:08;15.70;99.90
39189;DHT22;24915;50.858;4.376;2022-09-09T05:01:35;15.60;99.90
39189;DHT22;24915;50.858;4.376;2022-09-09T05:04:02;15.60;99.90
39189;DHT22;24915;50.858;4.376;2022-09-09T05:06:28;15.60;99.90
39189;DHT22;24915;50.858;4.376;2022-09-09T05:08:56;15.60;99.90
39189;DHT22;24915;50.858;4.376;2022-09-09T05:11:28;15.60;99.90
39189;DHT22;24915;50.858;4.376;2022-09-09T05:13:55;15.60;99.90
39189;DHT22;24915;50.858;4.376;2022-09-09T05:16:22;15.60;99.90
39189;DHT22;24915;50.858;4.376;2022-09-09T05:18:48;15.60;99.90
39189;DHT22;24915;50.858;4.376;2022-09-09T05:21:17;15.70;99.90
39189;DHT22;24915;50.858;4.376;2022-09-09T05:23:45;15.70;99.90
39189;DHT22;24915;50.858;4.376;2022-09-09T05:26:21;15.70;99.90
39189;DHT22;24915;50.858;4.376;2022-09-09T05:28:47;15.80;99.90
39189;DHT22;24915;50.858;4.376;2022-09-09T05:31:15;15.80;99.90
39189;DHT22;24915;50.858;4.376;2022-09-09T05:33:42;15.80;99.90
39189;DHT22;24915;50.858;4.376;2022-09-09T05:36:10;15.70;99.90
39189;DHT22;24915;50.858;4.376;2022-09-09T05:38:39;15.80;99.90
39189;DHT22;24915;50.858;4.376;2022-09-09T05:41:06;15.70;99.90
39189;DHT22;24915;50.858;4.376;2022-09-09T05:43:32;15.80;99.90
39189;DHT22;24915;50.858;4.376;2022-09-09T05:46:10;15.80;99.90
39189;DHT22;24915;50.858;4.376;2022-09-09T05:48:37;15.80;99.90
39189;DHT22;24915;50.858;4.376;2022-09-09T05:51:05;15.80;99.90
39189;DHT22;24915;50.858;4.376;2022-09-09T05:53:32;15.80;99.90
39189;DHT22;24915;50.858;4.376;2022-09-09T05:56:08;15.80;99.90
39189;DHT22;24915;50.858;4.376;2022-09-09T05:58:36;15.80;99.90
39189;DHT22;24915;50.858;4.376;2022-09-09T06:01:09;15.80;99.90
39189;DHT22;24915;50.858;4.376;2022-09-09T06:03:37;15.80;99.90
39189;DHT22;24915;50.858;4.376;2022-09-09T06:06:08;15.80;99.90
39189;DHT22;24915;50.858;4.376;2022-09-09T06:08:36;15.80;99.90
39189;DHT22;24915;50.858;4.376;2022-09-09T06:11:05;15.80;99.90
39189;DHT22;24915;50.858;4.376;2022-09-09T06:13:31;15.90;99.90
39189;DHT22;24915;50.858;4.376;2022-09-09T06:15:57;15.90;99.90
39189;DHT22;24915;50.858;4.376;2022-09-09T06:18:24;16.00;99.90
39189;DHT22;24915;50.858;4.376;2022-09-09T06:23:21;16.10;99.90
39189;DHT22;24915;50.858;4.376;2022-09-09T06:25:47;16.20;99.90
39189;DHT22;24915;50.858;4.376;2022-09-09T06:28:15;16.20;99.90
39189;DHT22;24915;50.858;4.376;2022-09-09T06:30:43;16.20;99.90
39189;DHT22;24915;50.858;4.376;2022-09-09T06:33:10;16.20;99.90
39189;DHT22;24915;50.858;4.376;2022-09-09T06:35:35;16.20;99.90
39189;DHT22;24915;50.858;4.376;2022-09-09T06:38:01;16.20;99.90
39189;DHT22;24915;50.858;4.376;2022-09-09T06:40:27;16.30;99.90
39189;DHT22;24915;50.858;4.376;2022-09-09T06:42:52;16.20;99.90
39189;DHT22;24915;50.858;4.376;2022-09-09T06:45:18;16.20;99.90
39189;DHT22;24915;50.858;4.376;2022-09-09T06:47:44;16.20;99.90
39189;DHT22;24915;50.858;4.376;2022-09-09T06:50:10;16.20;99.90
39189;DHT22;24915;50.858;4.376;2022-09-09T06:52:36;16.20;99.90
39189;DHT22;24915;50.858;4.376;2022-09-09T06:55:03;16.20;99.90
39189;DHT22;24915;50.858;4.376;2022-09-09T06:57:29;16.20;99.90
39189;DHT22;24915;50.858;4.376;2022-09-09T06:59:55;16.30;99.90
39189;DHT22;24915;50.858;4.376;2022-09-09T07:02:20;16.30;99.90
39189;DHT22;24915;50.858;4.376;2022-09-09T07:04:47;16.30;99.90
39189;DHT22;24915;50.858;4.376;2022-09-09T07:07:12;16.30;99.90
39189;DHT22;24915;50.858;4.376;2022-09-09T07:09:40;16.30;99.90
39189;DHT22;24915;50.858;4.376;2022-09-09T07:12:06;16.40;99.90
39189;DHT22;24915;50.858;4.376;2022-09-09T07:14:32;16.40;99.90
39189;DHT22;24915;50.858;4.376;2022-09-09T07:16:59;16.40;99.90
39189;DHT22;24915;50.858;4.376;2022-09-09T07:19:25;16.50;99.90
39189;DHT22;24915;50.858;4.376;2022-09-09T07:21:51;16.50;99.90
39189;DHT22;24915;50.858;4.376;2022-09-09T07:24:17;16.50;99.90
39189;DHT22;24915;50.858;4.376;2022-09-09T07:26:43;16.60;99.90
39189;DHT22;24915;50.858;4.376;2022-09-09T07:29:09;16.60;99.90
39189;DHT22;24915;50.858;4.376;2022-09-09T07:31:38;16.60;99.90
39189;DHT22;24915;50.858;4.376;2022-09-09T07:34:04;16.60;99.90
39189;DHT22;24915;50.858;4.376;2022-09-09T07:36:32;16.50;99.90
39189;DHT22;24915;50.858;4.376;2022-09-09T07:39:03;16.50;99.90
39189;DHT22;24915;50.858;4.376;2022-09-09T07:41:39;16.50;99.90
39189;DHT22;24915;50.858;4.376;2022-09-09T07:44:07;16.50;99.90
39189;DHT22;24915;50.858;4.376;2022-09-09T07:46:35;16.50;99.90
39189;DHT22;24915;50.858;4.376;2022-09-09T07:49:01;16.50;99.90
39189;DHT22;24915;50.858;4.376;2022-09-09T07:51:31;16.50;99.90
39189;DHT22;24915;50.858;4.376;2022-09-09T07:53:59;16.40;99.90
39189;DHT22;24915;50.858;4.376;2022-09-09T07:56:26;16.40;99.90
39189;DHT22;24915;50.858;4.376;2022-09-09T07:58:53;16.40;99.90
39189;DHT22;24915;50.858;4.376;2022-09-09T08:01:20;16.40;99.90
39189;DHT22;24915;50.858;4.376;2022-09-09T08:03:53;16.50;99.90
39189;DHT22;24915;50.858;4.376;2022-09-09T08:06:19;16.50;99.90
39189;DHT22;24915;50.858;4.376;2022-09-09T08:08:44;16.60;99.90
39189;DHT22;24915;50.858;4.376;2022-09-09T08:11:13;16.60;99.90
39189;DHT22;24915;50.858;4.376;2022-09-09T08:13:41;16.80;99.90
39189;DHT22;24915;50.858;4.376;2022-09-09T08:16:10;16.80;99.90
39189;DHT22;24915;50.858;4.376;2022-09-09T08:18:37;16.90;99.90
39189;DHT22;24915;50.858;4.376;2022-09-09T08:21:07;17.00;99.90
39189;DHT22;24915;50.858;4.376;2022-09-09T08:23:34;17.00;99.90
39189;DHT22;24915;50.858;4.376;2022-09-09T08:26:11;17.00;99.90
39189;DHT22;24915;50.858;4.376;2022-09-09T08:28:38;17.00;99.90
39189;DHT22;24915;50.858;4.376;2022-09-09T08:31:15;16.90;99.90
39189;DHT22;24915;50.858;4.376;2022-09-09T08:33:42;16.90;99.90
39189;DHT22;24915;50.858;4.376;2022-09-09T08:36:13;16.90;99.90
39189;DHT22;24915;50.858;4.376;2022-09-09T08:38:43;16.90;99.90
39189;DHT22;24915;50.858;4.376;2022-09-09T08:47:33;16.80;99.90
39189;DHT22;24915;50.858;4.376;2022-09-09T08:50:23;16.70;99.90
39189;DHT22;24915;50.858;4.376;2022-09-09T08:52:59;16.60;99.90
39189;DHT22;24915;50.858;4.376;2022-09-09T08:57:58;16.60;99.90
39189;DHT22;24915;50.858;4.376;2022-09-09T09:00:38;16.60;99.90
39189;DHT22;24915;50.858;4.376;2022-09-09T09:06:14;16.70;99.90
39189;DHT22;24915;50.858;4.376;2022-09-09T09:08:48;16.70;99.90
39189;DHT22;24915;50.858;4.376;2022-09-09T09:11:17;16.60;99.90
39189;DHT22;24915;50.858;4.376;2022-09-09T09:13:52;16.60;99.90
39189;DHT22;24915;50.858;4.376;2022-09-09T09:16:31;16.60;99.90
39189;DHT22;24915;50.858;4.376;2022-09-09T09:18:59;16.50;99.90
39189;DHT22;24915;50.858;4.376;2022-09-09T09:24:07;16.50;99.90
39189;DHT22;24915;50.858;4.376;2022-09-09T09:26:37;16.50;99.90
39189;DHT22;24915;50.858;4.376;2022-09-09T09:29:16;16.50;99.90
39189;DHT22;24915;50.858;4.376;2022-09-09T09:31:56;16.50;99.90
39189;DHT22;24915;50.858;4.376;2022-09-09T09:34:24;16.50;99.90
39189;DHT22;24915;50.858;4.376;2022-09-09T09:36:58;16.40;99.90
39189;DHT22;24915;50.858;4.376;2022-09-09T09:39:27;16.40;99.90
39189;DHT22;24915;50.858;4.376;2022-09-09T09:41:54;16.40;99.90
39189;DHT22;24915;50.858;4.376;2022-09-09T09:44:29;16.40;99.90
39189;DHT22;24915;50.858;4.376;2022-09-09T09:49:31;16.40;99.90
39189;DHT22;24915;50.858;4.376;2022-09-09T09:52:04;16.40;99.90
39189;DHT22;24915;50.858;4.376;2022-09-09T09:54:34;16.40;99.90
39189;DHT22;24915;50.858;4.376;2022-09-09T09:57:13;16.50;99.90
39189;DHT22;24915;50.858;4.376;2022-09-09T09:59:40;16.50;99.90
39189;DHT22;24915;50.858;4.376;2022-09-09T10:02:23;16.50;99.90
39189;DHT22;24915;50.858;4.376;2022-09-09T10:05:20;16.50;99.90
39189;DHT22;24915;50.858;4.376;2022-09-09T10:07:47;16.60;99.90
39189;DHT22;24915;50.858;4.376;2022-09-09T10:15:52;16.60;99.90
39189;DHT22;24915;50.858;4.376;2022-09-09T10:38:54;17.20;99.90
39189;DHT22;24915;50.858;4.376;2022-09-09T10:55:02;18.10;99.90
39189;DHT22;24915;50.858;4.376;2022-09-09T10:57:51;18.20;99.90
39189;DHT22;24915;50.858;4.376;2022-09-09T11:00:43;18.30;99.90
39189;DHT22;24915;50.858;4.376;2022-09-09T11:03:20;18.40;99.90
39189;DHT22;24915;50.858;4.376;2022-09-09T11:06:06;18.40;99.90
39189;DHT22;24915;50.858;4.376;2022-09-09T11:08:35;18.30;99.90
39189;DHT22;24915;50.858;4.376;2022-09-09T11:19:35;18.20;99.90
39189;DHT22;24915;50.858;4.376;2022-09-09T11:24:41;18.30;99.90
39189;DHT22;24915;50.858;4.376;2022-09-09T11:27:11;18.40;99.90
39189;DHT22;24915;50.858;4.376;2022-09-09T11:38:21;18.30;99.90
39189;DHT22;24915;50.858;4.376;2022-09-09T11:41:04;18.30;99.90
39189;DHT22;24915;50.858;4.376;2022-09-09T11:43:43;18.20;99.90
39189;DHT22;24915;50.858;4.376;2022-09-09T11:46:10;18.10;99.90
39189;DHT22;24915;50.858;4.376;2022-09-09T11:48:43;18.10;99.90
39189;DHT22;24915;50.858;4.376;2022-09-09T11:51:26;18.20;99.90
39189;DHT22;24915;50.858;4.376;2022-09-09T11:56:46;18.20;99.90
39189;DHT22;24915;50.858;4.376;2022-09-09T11:59:25;18.20;99.90
39189;DHT22;24915;50.858;4.376;2022-09-09T12:07:04;18.20;99.90
39189;DHT22;24915;50.858;4.376;2022-09-09T12:09:42;18.20;99.90
39189;DHT22;24915;50.858;4.376;2022-09-09T12:14:59;18.30;99.90
39189;DHT22;24915;50.858;4.376;2022-09-09T12:17:27;18.30;99.90
39189;DHT22;24915;50.858;4.376;2022-09-09T12:28:18;18.30;99.90
39189;DHT22;24915;50.858;4.376;2022-09-09T12:33:37;18.50;99.90
39189;DHT22;24915;50.858;4.376;2022-09-09T12:36:11;18.50;99.90
39189;DHT22;24915;50.858;4.376;2022-09-09T12:38:40;18.60;99.90
39189;DHT22;24915;50.858;4.376;2022-09-09T12:41:06;18.70;99.90
39189;DHT22;24915;50.858;4.376;2022-09-09T12:43:32;18.80;99.90
39189;DHT22;24915;50.858;4.376;2022-09-09T12:46:02;18.80;99.90
39189;DHT22;24915;50.858;4.376;2022-09-09T12:48:36;18.90;99.90
39189;DHT22;24915;50.858;4.376;2022-09-09T12:51:04;19.00;99.90
39189;DHT22;24915;50.858;4.376;2022-09-09T12:53:36;19.00;99.90
39189;DHT22;24915;50.858;4.376;2022-09-09T12:56:08;19.00;99.90
39189;DHT22;24915;50.858;4.376;2022-09-09T12:58:36;19.00;99.90
39189;DHT22;24915;50.858;4.376;2022-09-09T13:01:05;19.00;99.90
39189;DHT22;24915;50.858;4.376;2022-09-09T13:03:32;19.00;99.90
39189;DHT22;24915;50.858;4.376;2022-09-09T13:06:11;19.20;99.90
39189;DHT22;24915;50.858;4.376;2022-09-09T13:08:38;19.30;99.90
39189;DHT22;24915;50.858;4.376;2022-09-09T13:11:09;19.20;99.90
39189;DHT22;24915;50.858;4.376;2022-09-09T13:13:36;19.10;99.90
39189;DHT22;24915;50.858;4.376;2022-09-09T13:16:05;19.10;99.90
39189;DHT22;24915;50.858;4.376;2022-09-09T13:18:34;19.20;99.90
39189;DHT22;24915;50.858;4.376;2022-09-09T13:21:01;19.30;99.90
39189;DHT22;24915;50.858;4.376;2022-09-09T13:23:31;19.30;99.90
39189;DHT22;24915;50.858;4.376;2022-09-09T13:26:02;19.30;99.90
39189;DHT22;24915;50.858;4.376;2022-09-09T13:28:30;19.30;99.90
39189;DHT22;24915;50.858;4.376;2022-09-09T13:31:04;19.30;99.90
39189;DHT22;24915;50.858;4.376;2022-09-09T13:33:38;19.30;99.90
39189;DHT22;24915;50.858;4.376;2022-09-09T13:36:07;19.60;99.90
39189;DHT22;24915;50.858;4.376;2022-09-09T13:38:55;19.70;99.90
39189;DHT22;24915;50.858;4.376;2022-09-09T13:41:28;19.70;99.90
39189;DHT22;24915;50.858;4.376;2022-09-09T13:43:55;19.70;99.90
39189;DHT22;24915;50.858;4.376;2022-09-09T13:49:00;19.80;99.90
39189;DHT22;24915;50.858;4.376;2022-09-09T13:54:00;20.60;99.90
39189;DHT22;24915;50.858;4.376;2022-09-09T13:56:26;20.50;99.90
39189;DHT22;24915;50.858;4.376;2022-09-09T13:58:52;20.40;99.90
39189;DHT22;24915;50.858;4.376;2022-09-09T14:01:18;20.20;99.90
39189;DHT22;24915;50.858;4.376;2022-09-09T14:03:43;20.00;99.90
39189;DHT22;24915;50.858;4.376;2022-09-09T14:06:10;20.20;99.90
39189;DHT22;24915;50.858;4.376;2022-09-09T14:08:36;20.50;99.90
39189;DHT22;24915;50.858;4.376;2022-09-09T14:11:05;20.70;99.90
39189;DHT22;24915;50.858;4.376;2022-09-09T14:13:32;20.90;99.90
39189;DHT22;24915;50.858;4.376;2022-09-09T14:15:57;20.90;99.90
39189;DHT22;24915;50.858;4.376;2022-09-09T14:18:23;21.10;99.90
39189;DHT22;24915;50.858;4.376;2022-09-09T14:20:50;21.00;99.90
39189;DHT22;24915;50.858;4.376;2022-09-09T14:23:19;20.70;99.90
39189;DHT22;24915;50.858;4.376;2022-09-09T14:25:47;20.40;99.90
39189;DHT22;24915;50.858;4.376;2022-09-09T14:28:14;20.10;99.90
39189;DHT22;24915;50.858;4.376;2022-09-09T14:30:43;20.00;99.90
39189;DHT22;24915;50.858;4.376;2022-09-09T14:33:15;20.00;99.90
39189;DHT22;24915;50.858;4.376;2022-09-09T14:35:41;20.00;99.90
39189;DHT22;24915;50.858;4.376;2022-09-09T14:38:08;20.20;99.90
39189;DHT22;24915;50.858;4.376;2022-09-09T14:40:35;21.10;99.90
39189;DHT22;24915;50.858;4.376;2022-09-09T14:43:01;21.20;99.90
39189;DHT22;24915;50.858;4.376;2022-09-09T14:45:27;21.00;99.90
39189;DHT22;24915;50.858;4.376;2022-09-09T14:47:53;20.80;99.90
39189;DHT22;24915;50.858;4.376;2022-09-09T14:50:20;20.90;99.90
39189;DHT22;24915;50.858;4.376;2022-09-09T14:52:46;21.30;99.90
39189;DHT22;24915;50.858;4.376;2022-09-09T14:55:12;22.20;99.90
39189;DHT22;24915;50.858;4.376;2022-09-09T14:57:38;22.80;99.90
39189;DHT22;24915;50.858;4.376;2022-09-09T15:00:07;22.30;99.90
39189;DHT22;24915;50.858;4.376;2022-09-09T15:02:33;22.10;99.90
39189;DHT22;24915;50.858;4.376;2022-09-09T15:04:59;21.80;99.90
39189;DHT22;24915;50.858;4.376;2022-09-09T15:07:25;21.60;99.90
39189;DHT22;24915;50.858;4.376;2022-09-09T15:09:52;21.20;99.90
39189;DHT22;24915;50.858;4.376;2022-09-09T15:12:18;20.90;99.90
39189;DHT22;24915;50.858;4.376;2022-09-09T15:14:46;20.60;99.90
39189;DHT22;24915;50.858;4.376;2022-09-09T15:17:13;20.40;99.90
39189;DHT22;24915;50.858;4.376;2022-09-09T15:19:38;20.40;99.90
39189;DHT22;24915;50.858;4.376;2022-09-09T15:22:07;20.50;99.90
39189;DHT22;24915;50.858;4.376;2022-09-09T15:24:33;20.50;99.90
39189;DHT22;24915;50.858;4.376;2022-09-09T15:26:59;20.50;99.90
39189;DHT22;24915;50.858;4.376;2022-09-09T15:29:25;20.60;99.90
39189;DHT22;24915;50.858;4.376;2022-09-09T15:31:51;20.50;99.90
39189;DHT22;24915;50.858;4.376;2022-09-09T15:34:18;20.30;99.90
39189;DHT22;24915;50.858;4.376;2022-09-09T15:36:44;20.20;99.90
39189;DHT22;24915;50.858;4.376;2022-09-09T15:39:17;20.20;99.90
39189;DHT22;24915;50.858;4.376;2022-09-09T15:41:47;20.10;99.90
39189;DHT22;24915;50.858;4.376;2022-09-09T15:44:14;20.10;99.90
39189;DHT22;24915;50.858;4.376;2022-09-09T15:46:51;20.10;99.90
39189;DHT22;24915;50.858;4.376;2022-09-09T15:49:27;20.10;99.90
39189;DHT22;24915;50.858;4.376;2022-09-09T15:51:55;20.10;99.90
39189;DHT22;24915;50.858;4.376;2022-09-09T15:54:23;20.10;99.90
39189;DHT22;24915;50.858;4.376;2022-09-09T15:56:51;20.00;99.90
39189;DHT22;24915;50.858;4.376;2022-09-09T15:59:17;19.90;99.90
39189;DHT22;24915;50.858;4.376;2022-09-09T16:01:44;19.90;99.90
39189;DHT22;24915;50.858;4.376;2022-09-09T16:04:09;19.90;99.90
39189;DHT22;24915;50.858;4.376;2022-09-09T16:06:35;19.90;99.90
39189;DHT22;24915;50.858;4.376;2022-09-09T16:09:04;19.80;99.90
39189;DHT22;24915;50.858;4.376;2022-09-09T16:11:35;19.70;99.90
39189;DHT22;24915;50.858;4.376;2022-09-09T16:14:02;19.70;99.90
39189;DHT22;24915;50.858;4.376;2022-09-09T16:16:29;19.70;99.90
39189;DHT22;24915;50.858;4.376;2022-09-09T16:19:00;19.70;99.90
39189;DHT22;24915;50.858;4.376;2022-09-09T16:23:55;19.50;99.90
39189;DHT22;24915;50.858;4.376;2022-09-09T16:26:22;19.40;99.90
39189;DHT22;24915;50.858;4.376;2022-09-09T16:28:49;19.50;99.90
39189;DHT22;24915;50.858;4.376;2022-09-09T16:31:19;19.50;99.90
39189;DHT22;24915;50.858;4.376;2022-09-09T16:33:46;19.30;99.90
39189;DHT22;24915;50.858;4.376;2022-09-09T16:36:17;19.00;99.90
39189;DHT22;24915;50.858;4.376;2022-09-09T16:38:43;18.80;99.90
39189;DHT22;24915;50.858;4.376;2022-09-09T16:41:11;18.60;99.90
39189;DHT22;24915;50.858;4.376;2022-09-09T16:43:37;18.60;99.90
39189;DHT22;24915;50.858;4.376;2022-09-09T16:46:14;18.70;99.90
39189;DHT22;24915;50.858;4.376;2022-09-09T16:48:41;18.80;99.90
39189;DHT22;24915;50.858;4.376;2022-09-09T16:51:11;18.80;99.90
39189;DHT22;24915;50.858;4.376;2022-09-09T16:53:37;18.80;99.90
39189;DHT22;24915;50.858;4.376;2022-09-09T16:56:07;18.80;99.90
39189;DHT22;24915;50.858;4.376;2022-09-09T16:58:32;18.70;99.90
39189;DHT22;24915;50.858;4.376;2022-09-09T17:01:00;18.70;99.90
39189;DHT22;24915;50.858;4.376;2022-09-09T17:03:27;18.60;99.90
39189;DHT22;24915;50.858;4.376;2022-09-09T17:05:53;18.60;99.90
39189;DHT22;24915;50.858;4.376;2022-09-09T17:08:19;18.50;99.90
39189;DHT22;24915;50.858;4.376;2022-09-09T17:10:45;18.40;99.90
39189;DHT22;24915;50.858;4.376;2022-09-09T17:13:11;18.40;99.90
39189;DHT22;24915;50.858;4.376;2022-09-09T17:15:42;18.40;99.90
39189;DHT22;24915;50.858;4.376;2022-09-09T17:18:11;18.40;99.90
39189;DHT22;24915;50.858;4.376;2022-09-09T17:20:38;18.40;99.90
39189;DHT22;24915;50.858;4.376;2022-09-09T17:23:08;18.40;99.90
39189;DHT22;24915;50.858;4.376;2022-09-09T17:25:35;18.40;99.90
39189;DHT22;24915;50.858;4.376;2022-09-09T17:28:01;18.30;99.90
39189;DHT22;24915;50.858;4.376;2022-09-09T17:30:30;18.30;99.90
39189;DHT22;24915;50.858;4.376;2022-09-09T17:32:57;18.30;99.90
39189;DHT22;24915;50.858;4.376;2022-09-09T17:35:22;18.20;99.90
39189;DHT22;24915;50.858;4.376;2022-09-09T17:37:48;18.20;99.90
39189;DHT22;24915;50.858;4.376;2022-09-09T17:40:13;18.20;99.90
39189;DHT22;24915;50.858;4.376;2022-09-09T17:42:39;18.20;99.90
39189;DHT22;24915;50.858;4.376;2022-09-09T17:45:06;18.20;99.90
39189;DHT22;24915;50.858;4.376;2022-09-09T17:47:32;18.20;99.90
39189;DHT22;24915;50.858;4.376;2022-09-09T17:49:57;18.10;99.90
39189;DHT22;24915;50.858;4.376;2022-09-09T17:52:24;18.10;99.90
39189;DHT22;24915;50.858;4.376;2022-09-09T17:54:49;18.10;99.90
39189;DHT22;24915;50.858;4.376;2022-09-09T17:57:16;18.00;99.90
39189;DHT22;24915;50.858;4.376;2022-09-09T17:59:44;18.10;99.90
39189;DHT22;24915;50.858;4.376;2022-09-09T18:02:12;18.00;99.90
39189;DHT22;24915;50.858;4.376;2022-09-09T18:04:38;18.00;99.90
39189;DHT22;24915;50.858;4.376;2022-09-09T18:07:04;17.90;99.90
39189;DHT22;24915;50.858;4.376;2022-09-09T18:09:30;17.90;99.90
39189;DHT22;24915;50.858;4.376;2022-09-09T18:11:57;17.90;99.90